createdAt,value
2022-09-03T00:00:16.444Z,19.28
2022-09-03T00:04:37.141Z,19.28
2022-09-03T00:09:00.004Z,19.23
2022-09-03T00:13:17.534Z,19.16
2022-09-03T00:17:41.175Z,19.18
2022-09-03T00:21:58.834Z,19.07
2022-09-03T00:26:13.313Z,18.95
2022-09-03T00:30:24.987Z,18.98
2022-09-03T00:34:41.356Z,18.93
2022-09-03T00:38:52.970Z,18.86
2022-09-03T00:43:18.689Z,18.77
2022-09-03T00:48:03.554Z,18.73
2022-09-03T00:52:45.888Z,18.75
2022-09-03T00:57:25.636Z,18.64
2022-09-03T01:02:01.369Z,18.65
2022-09-03T01:06:29.243Z,18.56
2022-09-03T01:10:46.875Z,18.53
2022-09-03T01:15:31.334Z,18.43
2022-09-03T01:20:12.524Z,18.42
2022-09-03T01:24:31.284Z,18.37
2022-09-03T01:29:12.046Z,18.33
2022-09-03T01:33:34.021Z,18.31
2022-09-03T01:38:04.344Z,18.25
2022-09-03T01:42:29.282Z,18.18
2022-09-03T01:46:41.965Z,18.18
2022-09-03T01:51:02.401Z,18.11
2022-09-03T01:55:36.796Z,18.04
2022-09-03T01:59:58.965Z,17.96
2022-09-03T02:04:20.522Z,17.93
2022-09-03T02:08:32.572Z,17.90
2022-09-03T02:12:52.583Z,17.87
2022-09-03T02:17:06.982Z,17.81
2022-09-03T02:21:21.218Z,17.76
2022-09-03T02:25:37.990Z,17.70
2022-09-03T02:29:49.628Z,17.68
2022-09-03T02:34:01.290Z,17.68
2022-09-03T02:38:18.090Z,17.64
2022-09-03T02:42:29.746Z,17.51
2022-09-03T02:46:46.889Z,17.53
2022-09-03T02:50:59.076Z,17.50
2022-09-03T02:55:10.754Z,17.49
2022-09-03T02:59:22.968Z,17.42
2022-09-03T03:03:35.050Z,17.37
2022-09-03T03:07:46.690Z,17.29
2022-09-03T03:11:58.356Z,17.32
2022-09-03T03:16:10.433Z,17.22
2022-09-03T03:20:22.011Z,17.21
2022-09-03T03:24:33.652Z,17.19
2022-09-03T03:28:46.873Z,17.13
2022-09-03T03:32:58.552Z,17.13
2022-09-03T03:37:10.130Z,17.04
2022-09-03T03:41:24.601Z,17.07
2022-09-03T03:45:36.201Z,17.01
2022-09-03T03:49:48.045Z,16.99
2022-09-03T03:54:04.332Z,16.93
2022-09-03T03:58:16.787Z,16.92
2022-09-03T04:02:28.483Z,16.86
2022-09-03T04:06:40.151Z,16.83
2022-09-03T04:10:51.888Z,16.76
2022-09-03T04:15:04.041Z,16.71
2022-09-03T04:19:15.644Z,16.73
2022-09-03T04:23:28.201Z,16.64
2022-09-03T04:27:39.848Z,16.61
2022-09-03T04:32:10.113Z,16.55
2022-09-03T04:36:24.671Z,16.54
2022-09-03T04:40:36.829Z,16.47
2022-09-03T04:44:48.418Z,16.48
2022-09-03T04:49:00.624Z,16.40
2022-09-03T04:53:12.234Z,16.38
2022-09-03T04:57:25.207Z,16.36
2022-09-03T05:01:39.281Z,16.37
2022-09-03T05:05:55.655Z,16.39
2022-09-03T05:10:20.507Z,16.37
2022-09-03T05:14:32.151Z,16.34
2022-09-03T05:18:45.096Z,16.38
2022-09-03T05:22:57.536Z,16.38
2022-09-03T05:27:09.125Z,16.55
2022-09-03T05:31:22.431Z,16.72
2022-09-03T05:35:34.094Z,16.79
2022-09-03T05:39:45.785Z,16.74
2022-09-03T05:43:59.446Z,16.85
2022-09-03T05:48:11.279Z,18.04
2022-09-03T05:52:23.509Z,19.41
2022-09-03T05:56:36.552Z,20.62
2022-09-03T06:00:48.179Z,21.46
2022-09-03T06:04:59.953Z,22.02
2022-09-03T06:09:14.359Z,22.65
2022-09-03T06:13:26.007Z,23.04
2022-09-03T06:17:40.544Z,23.26
2022-09-03T06:21:55.449Z,23.63
2022-09-03T06:26:12.609Z,24.05
2022-09-03T06:30:26.740Z,24.51
2022-09-03T06:34:38.459Z,24.91
2022-09-03T06:38:54.881Z,25.27
2022-09-03T06:43:06.488Z,25.70
2022-09-03T06:47:18.294Z,25.79
2022-09-03T06:51:32.953Z,26.17
2022-09-03T06:55:52.387Z,26.50
2022-09-03T07:00:04.626Z,26.69
2022-09-03T07:04:19.195Z,27.02
2022-09-03T07:08:33.371Z,27.26
2022-09-03T07:12:44.950Z,27.26
2022-09-03T07:16:56.544Z,27.71
2022-09-03T07:21:11.297Z,28.30
2022-09-03T07:25:26.157Z,28.57
2022-09-03T07:29:37.866Z,28.80
2022-09-03T07:33:49.449Z,28.89
2022-09-03T07:38:01.047Z,29.15
2022-09-03T07:42:12.749Z,29.52
2022-09-03T07:46:27.296Z,29.46
2022-09-03T07:50:40.221Z,29.67
2022-09-03T07:54:52.031Z,29.57
2022-09-03T07:59:05.437Z,29.60
2022-09-03T08:03:17.652Z,29.40
2022-09-03T08:07:30.474Z,29.63
2022-09-03T08:11:43.549Z,30.10
2022-09-03T08:15:56.762Z,30.73
2022-09-03T08:20:09.045Z,31.42
2022-09-03T08:24:25.712Z,31.60
2022-09-03T08:28:38.090Z,32.07
2022-09-03T08:32:50.416Z,32.34
2022-09-03T08:37:02.060Z,32.65
2022-09-03T08:41:16.766Z,32.70
2022-09-03T08:45:30.285Z,32.79
2022-09-03T08:50:04.928Z,33.13
2022-09-03T08:54:18.237Z,33.52
2022-09-03T08:58:33.630Z,33.70
2022-09-03T09:03:15.605Z,33.72
2022-09-03T09:07:41.497Z,34.10
2022-09-03T09:12:17.784Z,34.33
2022-09-03T09:16:50.371Z,34.45
2022-09-03T09:21:20.968Z,34.46
2022-09-03T09:25:41.684Z,34.71
2022-09-03T09:29:54.611Z,35.06
2022-09-03T09:34:08.352Z,35.26
2022-09-03T09:38:31.988Z,35.43
2022-09-03T09:42:43.743Z,35.26
2022-09-03T09:47:08.783Z,35.47
2022-09-03T09:51:25.826Z,35.56
2022-09-03T09:55:48.802Z,35.61
2022-09-03T10:00:18.068Z,35.47
2022-09-03T10:04:33.381Z,35.41
2022-09-03T10:08:45.221Z,35.59
2022-09-03T10:13:08.317Z,35.65
2022-09-03T10:17:36.893Z,35.85
2022-09-03T10:22:09.744Z,35.87
2022-09-03T10:26:29.029Z,35.81
2022-09-03T10:31:05.314Z,35.67
2022-09-03T10:35:38.001Z,35.29
2022-09-03T10:39:58.921Z,35.35
2022-09-03T10:44:37.658Z,35.30
2022-09-03T10:49:08.324Z,35.47
2022-09-03T10:53:51.206Z,35.57
2022-09-03T10:58:48.144Z,35.26
2022-09-03T11:03:21.097Z,35.09
2022-09-03T11:07:40.093Z,35.03
2022-09-03T11:11:59.603Z,34.97
2022-09-03T11:16:20.976Z,34.79
2022-09-03T11:20:33.801Z,34.58
2022-09-03T11:24:54.411Z,34.87
2022-09-03T11:29:51.025Z,35.02
2022-09-03T11:34:09.247Z,35.10
2022-09-03T11:38:27.247Z,35.20
2022-09-03T11:42:41.856Z,35.53
2022-09-03T11:46:58.521Z,35.27
2022-09-03T11:51:26.722Z,35.32
2022-09-03T11:56:02.319Z,34.86
2022-09-03T12:00:21.234Z,34.79
2022-09-03T12:04:38.866Z,34.60
2022-09-03T12:09:13.733Z,34.35
2022-09-03T12:13:47.331Z,34.48
2022-09-03T12:18:22.360Z,34.34
2022-09-03T12:22:38.650Z,34.23
2022-09-03T12:26:50.294Z,34.04
2022-09-03T12:31:20.267Z,33.81
2022-09-03T12:40:05.447Z,32.30
2022-09-03T12:44:29.953Z,31.75
2022-09-03T12:53:34.138Z,31.47
2022-09-03T12:57:56.749Z,31.46
2022-09-03T13:02:23.909Z,31.43
2022-09-03T13:06:56.171Z,31.21
2022-09-03T13:11:07.974Z,30.86
2022-09-03T13:15:23.847Z,30.71
2022-09-03T13:19:35.825Z,30.57
2022-09-03T13:24:25.917Z,30.64
2022-09-03T13:29:02.017Z,30.73
2022-09-03T13:33:21.634Z,30.68
2022-09-03T13:37:49.133Z,30.75
2022-09-03T13:42:13.196Z,30.66
2022-09-03T13:46:31.473Z,30.51
2022-09-03T13:50:59.585Z,30.49
2022-09-03T13:55:27.145Z,30.46
2022-09-03T14:00:04.891Z,30.39
2022-09-03T14:04:30.171Z,30.36
2022-09-03T14:09:23.071Z,30.29
2022-09-03T14:13:46.475Z,30.04
2022-09-03T14:18:29.191Z,29.95
2022-09-03T14:22:59.395Z,29.88
2022-09-03T14:27:11.261Z,29.89
2022-09-03T14:31:36.591Z,29.90
2022-09-03T14:36:02.800Z,29.81
2022-09-03T14:40:24.164Z,29.74
2022-09-03T14:45:15.976Z,29.75
2022-09-03T14:50:03.153Z,29.69
2022-09-03T14:54:28.703Z,29.55
2022-09-03T14:59:23.596Z,29.56
2022-09-03T15:04:00.155Z,29.54
2022-09-03T15:08:34.843Z,29.39
2022-09-03T15:12:57.389Z,29.36
2022-09-03T15:17:30.065Z,29.31
2022-09-03T15:22:08.398Z,29.27
2022-09-03T15:26:38.194Z,29.17
2022-09-03T15:31:02.457Z,29.10
2022-09-03T15:35:30.775Z,28.99
2022-09-03T15:39:46.992Z,28.89
2022-09-03T15:44:01.193Z,28.84
2022-09-03T15:48:28.519Z,28.81
2022-09-03T15:53:07.124Z,28.75
2022-09-03T15:57:28.494Z,28.67
2022-09-03T16:01:51.051Z,28.64
2022-09-03T16:06:20.776Z,28.56
2022-09-03T16:11:01.862Z,28.56
2022-09-03T16:15:18.253Z,28.51
2022-09-03T16:19:58.901Z,28.51
2022-09-03T16:24:45.987Z,28.44
2022-09-03T16:29:07.614Z,28.27
2022-09-03T16:33:43.067Z,28.30
2022-09-03T16:38:36.365Z,28.23
2022-09-03T16:43:23.618Z,28.09
2022-09-03T16:47:50.238Z,27.97
2022-09-03T16:52:07.911Z,27.98
2022-09-03T16:56:38.613Z,27.87
2022-09-03T17:01:06.793Z,27.87
2022-09-03T17:05:36.885Z,27.71
2022-09-03T17:10:07.630Z,27.71
2022-09-03T17:14:50.618Z,27.60
2022-09-03T17:19:22.974Z,27.54
2022-09-03T17:23:40.833Z,27.36
2022-09-03T17:28:22.709Z,27.32
2022-09-03T17:33:06.466Z,27.19
2022-09-03T17:37:57.067Z,27.09
2022-09-03T17:42:23.734Z,26.89
2022-09-03T17:46:53.647Z,26.84
2022-09-03T17:51:08.857Z,26.73
2022-09-03T17:55:37.488Z,26.70
2022-09-03T17:59:57.729Z,26.46
2022-09-03T18:04:24.688Z,26.46
2022-09-03T18:09:11.979Z,26.33
2022-09-03T18:13:34.991Z,26.13
2022-09-03T18:18:02.879Z,26.09
2022-09-03T18:22:34.062Z,25.93
2022-09-03T18:27:20.586Z,25.84
2022-09-03T18:31:50.945Z,25.67
2022-09-03T18:36:21.679Z,25.55
2022-09-03T18:41:07.838Z,25.38
2022-09-03T18:46:17.565Z,25.24
2022-09-03T18:50:46.479Z,25.02
2022-09-03T18:55:41.849Z,24.93
2022-09-03T19:00:23.329Z,24.72
2022-09-03T19:05:33.563Z,24.57
2022-09-03T19:10:30.004Z,24.50
2022-09-03T19:15:09.376Z,24.28
2022-09-03T19:20:08.767Z,24.15
2022-09-03T19:24:45.123Z,23.99
2022-09-03T19:29:22.308Z,23.85
2022-09-03T19:34:20.596Z,23.78
2022-09-03T19:39:12.702Z,23.73
2022-09-03T19:43:51.461Z,23.58
2022-09-03T19:48:45.838Z,23.44
2022-09-03T19:53:23.811Z,23.45
2022-09-03T19:57:53.961Z,23.27
2022-09-03T20:02:26.885Z,23.18
2022-09-03T20:06:57.560Z,23.12
2022-09-03T20:11:18.590Z,23.04
2022-09-03T20:15:42.759Z,22.94
2022-09-03T20:20:25.260Z,22.84
2022-09-03T20:25:02.353Z,22.80
2022-09-03T20:29:29.133Z,22.62
2022-09-03T20:33:56.741Z,22.55
2022-09-03T20:38:42.223Z,22.52
2022-09-03T20:43:24.026Z,22.37
2022-09-03T20:48:00.144Z,22.36
2022-09-03T20:52:32.815Z,22.20
2022-09-03T20:57:09.837Z,22.17
2022-09-03T21:01:39.040Z,22.12
2022-09-03T21:06:24.491Z,22.02
2022-09-03T21:10:51.738Z,21.86
2022-09-03T21:15:35.652Z,21.78
2022-09-03T21:20:05.798Z,21.70
2022-09-03T21:24:48.023Z,21.74
2022-09-03T21:29:08.896Z,21.69
2022-09-03T21:33:26.814Z,21.77
2022-09-03T21:37:41.965Z,21.74
2022-09-03T21:42:03.256Z,21.78
2022-09-03T21:46:49.817Z,21.70
2022-09-03T21:51:07.265Z,21.70
2022-09-03T21:55:26.693Z,21.60
2022-09-03T21:59:57.826Z,21.70
2022-09-03T22:04:09.593Z,21.64
2022-09-03T22:08:36.315Z,21.54
2022-09-03T22:13:09.463Z,21.62
2022-09-03T22:17:47.090Z,21.55
2022-09-03T22:22:01.055Z,21.43
2022-09-03T22:26:37.221Z,21.46
2022-09-03T22:31:28.162Z,21.35
2022-09-03T22:36:03.018Z,21.28
2022-09-03T22:40:25.107Z,21.26
2022-09-03T22:44:54.940Z,21.27
2022-09-03T22:49:45.440Z,21.19
2022-09-03T22:54:16.977Z,21.10
2022-09-03T22:58:35.108Z,20.99
2022-09-03T23:02:55.016Z,21.03
2022-09-03T23:07:18.879Z,20.94
2022-09-03T23:11:57.447Z,20.83
2022-09-03T23:16:15.128Z,20.86
2022-09-03T23:20:29.354Z,20.73
2022-09-03T23:24:46.901Z,20.65
2022-09-03T23:29:11.447Z,20.66
2022-09-03T23:33:23.177Z,20.58
2022-09-03T23:37:43.893Z,20.46
2022-09-03T23:42:13.962Z,20.52
2022-09-03T23:46:33.783Z,20.50
2022-09-03T23:51:16.490Z,20.43
2022-09-03T23:55:43.954Z,20.47
